Time;durP1;ratioP1;P1;durP2;ratioP2;P2;SDS_P1;SDS_P2;PMS_P1;PMS_P2;Temp;Humidity;BMP_temperature;BMP_pressure;BME280_temperature;BME280_humidity;BME280_pressure;Samples;Min_cycle;Max_cycle;Signal;HPM_P1;HPM_P2
2024/02/16 00:00:05;;;;;;;3.15;2.20;;;;;;;;;;5027006;28;20032;-64
2024/02/16 00:02:32;;;;;;;3.78;2.40;;;;;;;;;;5027972;28;20049;-62
2024/02/16 00:04:57;;;;;;;3.05;2.38;;;;;;;;;;5028573;28;20033;-63
2024/02/16 00:07:22;;;;;;;3.13;2.28;;;;;;;;;;5027205;28;20493;-62
2024/02/16 00:09:48;;;;;;;3.22;2.33;;;;;;;;;;5008062;28;20033;-62
2024/02/16 00:12:14;;;;;;;3.03;2.47;;;;;;;;;;5027301;28;20033;-62
2024/02/16 00:14:39;;;;;;;4.57;2.90;;;;;;;;;;5027679;28;20048;-62
2024/02/16 00:17:05;;;;;;;3.08;2.58;;;;;;;;;;5026950;28;20041;-64
2024/02/16 00:19:30;;;;;;;4.10;2.83;;;;;;;;;;5024988;28;20041;-63
2024/02/16 00:21:56;;;;;;;3.03;2.40;;;;;;;;;;5026486;28;20132;-63
2024/02/16 00:24:21;;;;;;;3.58;2.50;;;;;;;;;;5023882;28;20111;-63
2024/02/16 00:26:46;;;;;;;3.38;2.63;;;;;;;;;;5027735;28;20054;-63
2024/02/16 00:29:12;;;;;;;4.07;2.72;;;;;;;;;;5026008;28;20075;-62
2024/02/16 00:31:38;;;;;;;3.60;2.38;;;;;;;;;;5028137;28;20033;-62
2024/02/16 00:34:03;;;;;;;3.20;2.30;;;;;;;;;;5028183;28;20042;-62
2024/02/16 00:36:30;;;;;;;2.97;2.22;;;;;;;;;;5025335;28;20072;-63
2024/02/16 00:38:55;;;;;;;3.85;2.30;;;;;;;;;;5016291;28;20052;-62
2024/02/16 00:41:21;;;;;;;4.25;2.55;;;;;;;;;;5023768;28;20041;-63
2024/02/16 00:43:46;;;;;;;3.35;2.65;;;;;;;;;;5027508;28;20042;-65
2024/02/16 00:46:12;;;;;;;4.05;2.30;;;;;;;;;;5026650;28;20042;-64
2024/02/16 00:48:37;;;;;;;3.60;2.38;;;;;;;;;;5027498;28;20038;-62
2024/02/16 00:51:03;;;;;;;4.10;2.65;;;;;;;;;;5026893;28;20041;-62
2024/02/16 00:53:28;;;;;;;3.45;2.33;;;;;;;;;;5028083;28;20164;-61
2024/02/16 00:55:54;;;;;;;4.22;2.80;;;;;;;;;;5027780;28;20525;-63
2024/02/16 00:58:19;;;;;;;3.97;2.75;;;;;;;;;;5022727;28;20492;-64
2024/02/16 01:00:45;;;;;;;3.72;2.63;;;;;;;;;;5026699;28;20045;-62
2024/02/16 01:03:10;;;;;;;4.03;2.78;;;;;;;;;;5026693;28;20037;-62
2024/02/16 01:05:35;;;;;;;3.50;2.53;;;;;;;;;;5027168;28;20092;-63
2024/02/16 01:08:01;;;;;;;3.60;2.40;;;;;;;;;;5025743;28;20033;-62
2024/02/16 01:10:26;;;;;;;3.20;2.40;;;;;;;;;;5009068;28;20034;-62
2024/02/16 01:12:52;;;;;;;3.97;2.28;;;;;;;;;;5026869;28;20040;-63
2024/02/16 01:15:18;;;;;;;3.63;2.65;;;;;;;;;;5025774;28;20040;-63
2024/02/16 01:17:43;;;;;;;4.05;2.75;;;;;;;;;;5027255;28;20050;-64
2024/02/16 01:20:12;;;;;;;3.28;2.50;;;;;;;;;;5020266;28;20422;-61
2024/02/16 01:22:37;;;;;;;3.17;2.30;;;;;;;;;;5020943;28;20123;-62
2024/02/16 01:25:03;;;;;;;2.92;2.30;;;;;;;;;;5013010;28;20539;-63
2024/02/16 01:27:28;;;;;;;2.95;2.50;;;;;;;;;;5025931;28;20045;-62
2024/02/16 01:29:53;;;;;;;3.33;2.45;;;;;;;;;;5026336;28;20047;-62
2024/02/16 01:32:19;;;;;;;3.88;2.60;;;;;;;;;;5022982;28;20045;-62
2024/02/16 01:34:46;;;;;;;3.65;2.60;;;;;;;;;;5030851;28;20080;-63
2024/02/16 01:37:12;;;;;;;4.32;2.70;;;;;;;;;;5029455;28;20094;-62
2024/02/16 01:39:37;;;;;;;4.18;2.75;;;;;;;;;;5029068;28;20041;-62
2024/02/16 01:42:02;;;;;;;4.38;2.65;;;;;;;;;;5029947;28;20222;-63
2024/02/16 01:44:28;;;;;;;4.72;2.60;;;;;;;;;;5029960;28;20038;-62
2024/02/16 01:46:53;;;;;;;3.90;2.75;;;;;;;;;;5029758;28;20046;-63
2024/02/16 01:49:18;;;;;;;3.50;2.60;;;;;;;;;;4999835;28;20108;-63
2024/02/16 01:51:44;;;;;;;3.17;2.53;;;;;;;;;;5028978;28;20041;-62
2024/02/16 01:54:11;;;;;;;3.45;2.58;;;;;;;;;;5018912;28;20756;-62
2024/02/16 01:56:36;;;;;;;4.55;2.78;;;;;;;;;;5029103;28;20438;-63
2024/02/16 01:59:01;;;;;;;3.65;2.55;;;;;;;;;;5011769;28;20034;-63
2024/02/16 02:01:26;;;;;;;3.40;2.53;;;;;;;;;;5029268;28;20041;-63
2024/02/16 02:03:52;;;;;;;3.47;2.63;;;;;;;;;;5029963;28;20030;-64
2024/02/16 02:06:17;;;;;;;3.65;2.90;;;;;;;;;;5011495;28;20151;-62
2024/02/16 02:08:43;;;;;;;4.18;2.70;;;;;;;;;;5030078;28;20053;-62
2024/02/16 02:11:09;;;;;;;3.85;2.55;;;;;;;;;;5029677;28;20577;-63
2024/02/16 02:13:34;;;;;;;4.50;2.90;;;;;;;;;;5031509;28;20045;-63
2024/02/16 02:15:59;;;;;;;3.25;2.58;;;;;;;;;;5030572;28;20491;-62
2024/02/16 02:18:24;;;;;;;3.42;2.72;;;;;;;;;;5028533;28;20040;-64
2024/02/16 02:20:50;;;;;;;3.70;2.80;;;;;;;;;;5023598;28;20041;-62
2024/02/16 02:23:15;;;;;;;3.72;2.70;;;;;;;;;;5009723;28;20037;-63
2024/02/16 02:25:40;;;;;;;4.00;2.80;;;;;;;;;;5029114;28;20034;-62
2024/02/16 02:28:06;;;;;;;2.92;2.60;;;;;;;;;;5029038;28;20017;-64
2024/02/16 02:30:31;;;;;;;4.25;2.85;;;;;;;;;;5028633;28;20026;-63
2024/02/16 02:32:57;;;;;;;4.22;2.88;;;;;;;;;;5029132;28;20017;-63
2024/02/16 02:35:22;;;;;;;4.00;2.67;;;;;;;;;;5029679;28;20028;-64
2024/02/16 02:37:48;;;;;;;3.45;2.53;;;;;;;;;;5028636;28;20024;-64
2024/02/16 02:40:13;;;;;;;3.63;2.72;;;;;;;;;;5027088;28;20020;-62
2024/02/16 02:42:39;;;;;;;4.85;2.90;;;;;;;;;;5028972;28;20030;-63
2024/02/16 02:45:05;;;;;;;3.60;2.53;;;;;;;;;;5028352;28;20071;-65
2024/02/16 02:47:31;;;;;;;3.00;2.47;;;;;;;;;;5029341;28;20031;-63
2024/02/16 02:49:56;;;;;;;3.45;2.70;;;;;;;;;;5029310;28;20026;-63
2024/02/16 02:52:21;;;;;;;3.30;2.50;;;;;;;;;;5028593;28;20025;-62
2024/02/16 02:54:47;;;;;;;3.42;2.53;;;;;;;;;;5029106;28;20094;-62
2024/02/16 02:57:12;;;;;;;3.53;2.60;;;;;;;;;;5028240;28;20083;-63
2024/02/16 02:59:37;;;;;;;3.97;2.55;;;;;;;;;;5029043;28;20030;-62
2024/02/16 03:02:03;;;;;;;3.15;2.60;;;;;;;;;;5027613;28;20119;-63
2024/02/16 03:04:28;;;;;;;3.45;2.60;;;;;;;;;;5029086;28;20028;-63
2024/02/16 03:06:53;;;;;;;3.83;2.88;;;;;;;;;;5009430;28;20026;-63
2024/02/16 03:09:19;;;;;;;3.00;2.58;;;;;;;;;;5027193;28;20051;-64
2024/02/16 03:11:44;;;;;;;3.38;2.58;;;;;;;;;;5027584;28;20403;-63
2024/02/16 03:14:09;;;;;;;3.28;2.58;;;;;;;;;;5028182;28;20018;-63
2024/02/16 03:16:35;;;;;;;3.42;2.35;;;;;;;;;;5028863;28;20013;-63
2024/02/16 03:19:00;;;;;;;3.28;2.40;;;;;;;;;;5022179;28;20026;-63
2024/02/16 03:21:25;;;;;;;3.70;2.70;;;;;;;;;;5010542;28;20562;-63
2024/02/16 03:23:51;;;;;;;3.15;2.45;;;;;;;;;;5029598;28;20016;-62
2024/02/16 03:26:16;;;;;;;3.45;2.50;;;;;;;;;;5027451;28;20416;-62
2024/02/16 03:28:44;;;;;;;3.25;2.42;;;;;;;;;;5010571;28;20021;-64
2024/02/16 03:31:14;;;;;;;3.10;2.35;;;;;;;;;;5027654;28;20018;-63
2024/02/16 03:33:39;;;;;;;3.33;2.65;;;;;;;;;;5028745;28;20032;-62
2024/02/16 03:36:05;;;;;;;3.22;2.75;;;;;;;;;;5028619;28;20033;-61
2024/02/16 03:38:30;;;;;;;3.33;2.50;;;;;;;;;;5028807;28;20037;-61
2024/02/16 03:40:56;;;;;;;3.28;2.50;;;;;;;;;;5027610;28;20562;-63
2024/02/16 03:43:21;;;;;;;3.50;2.40;;;;;;;;;;5028139;28;20029;-62
2024/02/16 03:45:46;;;;;;;3.25;2.47;;;;;;;;;;5027116;28;20112;-62
2024/02/16 03:48:11;;;;;;;2.70;2.40;;;;;;;;;;5009378;28;20037;-62
2024/02/16 03:50:37;;;;;;;3.25;2.58;;;;;;;;;;5028209;28;20030;-61
2024/02/16 03:53:02;;;;;;;3.50;2.60;;;;;;;;;;5027659;28;20491;-62
2024/02/16 03:55:28;;;;;;;3.00;2.42;;;;;;;;;;5008129;28;20030;-63
2024/02/16 03:57:54;;;;;;;3.30;2.75;;;;;;;;;;5027713;28;20029;-63
2024/02/16 04:00:20;;;;;;;4.03;2.88;;;;;;;;;;5026837;28;20033;-62
2024/02/16 04:02:45;;;;;;;2.78;2.40;;;;;;;;;;5027329;28;20041;-63
2024/02/16 04:05:11;;;;;;;3.17;2.33;;;;;;;;;;5024304;28;20053;-63
2024/02/16 04:07:36;;;;;;;2.88;2.28;;;;;;;;;;5027036;28;20120;-62
2024/02/16 04:10:01;;;;;;;3.40;2.40;;;;;;;;;;5027261;28;20051;-62
2024/02/16 04:12:27;;;;;;;3.25;2.30;;;;;;;;;;5026939;28;20048;-63
2024/02/16 04:14:52;;;;;;;3.30;2.40;;;;;;;;;;5026738;28;20111;-63
2024/02/16 04:17:17;;;;;;;3.25;2.50;;;;;;;;;;5025992;28;20041;-63
2024/02/16 04:19:43;;;;;;;3.60;2.65;;;;;;;;;;5021210;28;20041;-62
2024/02/16 04:22:09;;;;;;;3.63;2.60;;;;;;;;;;5026362;28;20505;-63
2024/02/16 04:24:34;;;;;;;3.63;2.72;;;;;;;;;;5026527;28;20112;-63
2024/02/16 04:26:59;;;;;;;3.83;2.35;;;;;;;;;;5025923;28;20121;-64
2024/02/16 04:29:24;;;;;;;2.97;2.25;;;;;;;;;;5027128;28;20117;-64
2024/02/16 04:31:50;;;;;;;3.10;2.40;;;;;;;;;;5026109;28;20055;-63
2024/02/16 04:34:16;;;;;;;2.90;2.47;;;;;;;;;;5027180;28;20149;-64
2024/02/16 04:36:41;;;;;;;5.28;2.63;;;;;;;;;;5027691;28;20044;-62
2024/02/16 04:39:06;;;;;;;3.65;2.50;;;;;;;;;;5024179;28;20029;-63
2024/02/16 04:41:32;;;;;;;3.45;2.42;;;;;;;;;;5025906;28;20049;-62
2024/02/16 04:43:58;;;;;;;3.92;2.35;;;;;;;;;;5026802;28;20049;-62
2024/02/16 04:46:23;;;;;;;3.80;2.72;;;;;;;;;;5026213;28;20222;-63
2024/02/16 04:48:49;;;;;;;3.20;2.33;;;;;;;;;;5027213;28;20041;-63
2024/02/16 04:51:14;;;;;;;3.05;2.40;;;;;;;;;;5026101;28;20371;-63
2024/02/16 04:53:39;;;;;;;3.38;2.47;;;;;;;;;;5026101;28;20042;-64
2024/02/16 04:56:05;;;;;;;3.03;2.47;;;;;;;;;;5023540;28;20037;-63
2024/02/16 04:58:30;;;;;;;3.40;2.65;;;;;;;;;;5027049;28;20044;-63
2024/02/16 05:00:55;;;;;;;2.65;2.10;;;;;;;;;;5025697;28;20053;-64
2024/02/16 05:03:21;;;;;;;3.80;2.10;;;;;;;;;;5025764;28;20116;-62
2024/02/16 05:05:46;;;;;;;3.30;2.58;;;;;;;;;;5025411;28;20141;-63
2024/02/16 05:08:11;;;;;;;3.15;2.25;;;;;;;;;;5025608;28;20040;-63
2024/02/16 05:10:37;;;;;;;3.53;2.63;;;;;;;;;;5024508;28;20064;-62
2024/02/16 05:13:03;;;;;;;3.72;2.38;;;;;;;;;;5025128;28;20025;-63
2024/02/16 05:15:28;;;;;;;6.00;2.88;;;;;;;;;;5026221;28;20037;-63
2024/02/16 05:17:53;;;;;;;4.45;2.33;;;;;;;;;;5011565;28;20552;-62
2024/02/16 05:20:19;;;;;;;3.20;2.20;;;;;;;;;;5023432;28;20124;-63
2024/02/16 05:22:45;;;;;;;3.10;2.30;;;;;;;;;;5025071;28;20052;-62
2024/02/16 05:25:14;;;;;;;3.38;2.05;;;;;;;;;;5026151;28;20049;-64
2024/02/16 05:27:41;;;;;;;2.90;2.30;;;;;;;;;;5026058;28;20072;-63
2024/02/16 05:30:08;;;;;;;3.30;2.28;;;;;;;;;;5025577;28;20132;-63
2024/02/16 05:32:37;;;;;;;3.10;2.30;;;;;;;;;;5025355;28;20060;-64
2024/02/16 05:35:11;;;;;;;3.05;2.28;;;;;;;;;;5026498;28;20499;-64
2024/02/16 05:37:36;;;;;;;3.10;2.33;;;;;;;;;;5025604;28;20033;-64
2024/02/16 05:40:18;;;;;;;4.20;2.53;;;;;;;;;;5023826;28;20132;-64
2024/02/16 05:42:44;;;;;;;3.50;2.33;;;;;;;;;;5023747;28;20423;-63
2024/02/16 05:45:10;;;;;;;3.15;2.22;;;;;;;;;;5019561;28;20104;-63
2024/02/16 05:47:38;;;;;;;3.33;2.20;;;;;;;;;;5023612;28;20029;-62
2024/02/16 05:50:03;;;;;;;3.03;2.15;;;;;;;;;;5025501;28;20059;-62
2024/02/16 05:52:30;;;;;;;3.97;2.50;;;;;;;;;;5024595;28;20426;-62
2024/02/16 05:54:55;;;;;;;3.38;2.40;;;;;;;;;;5026502;28;20042;-64
2024/02/16 05:57:21;;;;;;;3.17;1.92;;;;;;;;;;5024640;28;20030;-63
2024/02/16 05:59:46;;;;;;;3.58;2.00;;;;;;;;;;5025043;28;20329;-63
2024/02/16 06:02:12;;;;;;;3.63;2.30;;;;;;;;;;5003802;28;20479;-65
2024/02/16 06:04:38;;;;;;;4.55;2.50;;;;;;;;;;5012874;28;20072;-64
2024/02/16 06:07:03;;;;;;;3.65;2.15;;;;;;;;;;5018055;28;20042;-63
2024/02/16 06:09:33;;;;;;;3.95;2.03;;;;;;;;;;5020557;28;20095;-63
2024/02/16 06:12:00;;;;;;;4.22;2.38;;;;;;;;;;5016072;28;20045;-63
2024/02/16 06:14:25;;;;;;;3.30;2.35;;;;;;;;;;5024227;28;20028;-63
2024/02/16 06:16:50;;;;;;;3.17;2.30;;;;;;;;;;5004401;28;20041;-63
2024/02/16 06:19:16;;;;;;;2.92;2.05;;;;;;;;;;5025759;28;20037;-62
2024/02/16 06:21:41;;;;;;;3.10;2.30;;;;;;;;;;5021211;28;20037;-64
2024/02/16 06:24:07;;;;;;;3.15;2.38;;;;;;;;;;5015807;28;20030;-64
2024/02/16 06:26:33;;;;;;;2.80;2.10;;;;;;;;;;5021191;28;20427;-63
2024/02/16 06:28:58;;;;;;;4.65;2.42;;;;;;;;;;5016191;28;20044;-64
2024/02/16 06:31:23;;;;;;;3.20;2.33;;;;;;;;;;5023478;28;20045;-63
2024/02/16 06:33:48;;;;;;;3.35;2.25;;;;;;;;;;5026544;28;20036;-64
2024/02/16 06:36:14;;;;;;;3.67;2.25;;;;;;;;;;5027716;28;20033;-63
2024/02/16 06:38:39;;;;;;;2.92;2.22;;;;;;;;;;5024780;28;20045;-64
2024/02/16 06:41:04;;;;;;;3.58;2.28;;;;;;;;;;5021311;28;20046;-64
2024/02/16 06:43:30;;;;;;;3.03;2.10;;;;;;;;;;5026946;28;20075;-63
2024/02/16 06:45:56;;;;;;;3.95;2.55;;;;;;;;;;5020910;28;20029;-62
2024/02/16 06:48:22;;;;;;;3.22;2.17;;;;;;;;;;5021746;28;20026;-62
2024/02/16 06:50:47;;;;;;;3.00;1.88;;;;;;;;;;5023463;28;20034;-63
2024/02/16 06:53:13;;;;;;;4.32;2.30;;;;;;;;;;5021408;28;20038;-62
2024/02/16 06:55:38;;;;;;;3.75;2.45;;;;;;;;;;5028901;28;20115;-64
2024/02/16 06:58:03;;;;;;;3.22;2.38;;;;;;;;;;5028427;28;20061;-65
2024/02/16 07:00:29;;;;;;;2.88;2.03;;;;;;;;;;5025611;28;20069;-67
2024/02/16 07:02:54;;;;;;;3.80;2.40;;;;;;;;;;5026187;28;20136;-65
2024/02/16 07:05:19;;;;;;;4.00;2.60;;;;;;;;;;5001443;28;20466;-63
2024/02/16 07:07:44;;;;;;;3.40;2.35;;;;;;;;;;5026325;28;20042;-64
2024/02/16 07:10:13;;;;;;;2.95;2.25;;;;;;;;;;5018535;28;20036;-62
2024/02/16 07:12:39;;;;;;;3.85;2.60;;;;;;;;;;5025086;28;20030;-64
2024/02/16 07:15:04;;;;;;;4.38;2.25;;;;;;;;;;5022810;28;20525;-63
2024/02/16 07:17:30;;;;;;;7.18;2.55;;;;;;;;;;5015873;28;20152;-63
2024/02/16 07:19:55;;;;;;;4.40;2.60;;;;;;;;;;5024310;28;20112;-63
2024/02/16 07:22:21;;;;;;;2.80;2.10;;;;;;;;;;5027493;28;20051;-63
2024/02/16 07:24:46;;;;;;;3.38;2.25;;;;;;;;;;5024033;28;20087;-64
2024/02/16 07:27:12;;;;;;;5.00;2.58;;;;;;;;;;5025970;28;20072;-64
2024/02/16 07:29:39;;;;;;;3.00;2.20;;;;;;;;;;5018699;28;21329;-64
2024/02/16 07:32:04;;;;;;;3.20;2.05;;;;;;;;;;5026007;28;20474;-62
2024/02/16 07:34:29;;;;;;;3.28;2.10;;;;;;;;;;5027159;28;20041;-63
2024/02/16 07:36:55;;;;;;;2.80;1.90;;;;;;;;;;5027773;28;20048;-63
2024/02/16 07:39:23;;;;;;;3.13;2.25;;;;;;;;;;5026723;28;20037;-64
2024/02/16 07:41:48;;;;;;;3.05;2.38;;;;;;;;;;5021962;28;20052;-63
2024/02/16 07:44:14;;;;;;;4.57;2.30;;;;;;;;;;5021147;28;20134;-64
2024/02/16 07:46:45;;;;;;;3.95;2.28;;;;;;;;;;5016768;28;20037;-63
2024/02/16 07:49:11;;;;;;;3.00;2.25;;;;;;;;;;5022996;28;20022;-64
2024/02/16 07:51:37;;;;;;;3.15;2.15;;;;;;;;;;5021234;28;20404;-62
2024/02/16 07:54:03;;;;;;;3.10;2.22;;;;;;;;;;5025147;28;20030;-62
2024/02/16 07:56:28;;;;;;;2.80;1.88;;;;;;;;;;5022500;28;20099;-63
2024/02/16 07:58:53;;;;;;;3.25;2.10;;;;;;;;;;5025412;28;20038;-64
2024/02/16 08:01:19;;;;;;;3.45;2.42;;;;;;;;;;5025453;28;20030;-64
2024/02/16 08:03:44;;;;;;;3.30;2.20;;;;;;;;;;5018427;28;20037;-63
2024/02/16 08:06:10;;;;;;;3.45;2.22;;;;;;;;;;5023068;28;20057;-64
2024/02/16 08:08:35;;;;;;;3.95;2.40;;;;;;;;;;5021912;28;20040;-65
2024/02/16 08:11:00;;;;;;;3.08;2.50;;;;;;;;;;5009227;28;20034;-61
2024/02/16 08:13:26;;;;;;;3.45;2.10;;;;;;;;;;5025936;28;20029;-62
2024/02/16 08:15:51;;;;;;;6.18;3.83;;;;;;;;;;5018598;28;20042;-62
2024/02/16 08:18:17;;;;;;;4.25;2.70;;;;;;;;;;5010776;28;20543;-63
2024/02/16 08:20:43;;;;;;;3.67;2.40;;;;;;;;;;5021178;28;20038;-63
2024/02/16 08:23:08;;;;;;;3.97;2.40;;;;;;;;;;5021346;28;20191;-62
2024/02/16 08:25:33;;;;;;;3.38;2.53;;;;;;;;;;5024070;28;20510;-65
2024/02/16 08:27:59;;;;;;;3.10;2.40;;;;;;;;;;5008486;28;20052;-64
2024/02/16 08:30:25;;;;;;;3.88;2.40;;;;;;;;;;5018062;28;20042;-63
2024/02/16 08:32:50;;;;;;;2.95;2.35;;;;;;;;;;5010798;28;20034;-62
2024/02/16 08:35:17;;;;;;;3.50;2.75;;;;;;;;;;5023033;28;20036;-63
2024/02/16 08:37:42;;;;;;;3.25;2.20;;;;;;;;;;5019047;28;20049;-62
2024/02/16 08:40:08;;;;;;;3.08;2.25;;;;;;;;;;5018280;28;20527;-65
2024/02/16 08:42:33;;;;;;;3.90;2.60;;;;;;;;;;5017896;28;20081;-64
2024/02/16 08:45:00;;;;;;;3.85;2.38;;;;;;;;;;5023940;28;20134;-64
2024/02/16 08:47:25;;;;;;;3.83;2.47;;;;;;;;;;5025708;28;20037;-64
2024/02/16 08:49:51;;;;;;;3.53;2.28;;;;;;;;;;5020318;28;20056;-62
2024/02/16 08:52:16;;;;;;;3.47;2.72;;;;;;;;;;5027011;28;20041;-64
2024/02/16 08:54:42;;;;;;;3.65;2.33;;;;;;;;;;5027385;28;20102;-63
2024/02/16 08:57:08;;;;;;;2.88;2.30;;;;;;;;;;5029826;28;20073;-65
2024/02/16 08:59:34;;;;;;;3.55;2.60;;;;;;;;;;5026369;28;20441;-63
2024/02/16 09:01:59;;;;;;;3.13;2.47;;;;;;;;;;5019597;28;20064;-63
2024/02/16 09:04:25;;;;;;;3.60;2.42;;;;;;;;;;5026487;28;20037;-62
2024/02/16 09:06:50;;;;;;;3.63;2.65;;;;;;;;;;5026120;28;20044;-64
2024/02/16 09:09:16;;;;;;;2.70;2.20;;;;;;;;;;5026926;28;20099;-64
2024/02/16 09:11:41;;;;;;;4.00;2.45;;;;;;;;;;5025122;28;20041;-63
2024/02/16 09:14:06;;;;;;;2.83;2.30;;;;;;;;;;5025801;28;20103;-64
2024/02/16 09:16:32;;;;;;;3.85;2.30;;;;;;;;;;5026064;28;20025;-64
2024/02/16 09:19:00;;;;;;;3.65;2.60;;;;;;;;;;5025761;28;20419;-63
2024/02/16 09:21:28;;;;;;;3.72;2.53;;;;;;;;;;5026541;28;20029;-63
2024/02/16 09:23:53;;;;;;;3.38;2.70;;;;;;;;;;5025762;28;20080;-63
2024/02/16 09:26:19;;;;;;;4.53;2.50;;;;;;;;;;5020611;28;20022;-63
2024/02/16 09:28:44;;;;;;;3.53;2.63;;;;;;;;;;5024382;28;20067;-62
2024/02/16 09:31:13;;;;;;;3.83;2.45;;;;;;;;;;5022554;28;20021;-62
2024/02/16 09:33:38;;;;;;;3.50;2.55;;;;;;;;;;5024555;28;20045;-63
2024/02/16 09:36:04;;;;;;;3.15;2.20;;;;;;;;;;5025176;28;20030;-63
2024/02/16 09:38:30;;;;;;;3.28;2.35;;;;;;;;;;5026068;28;20053;-63
2024/02/16 09:40:55;;;;;;;3.40;2.55;;;;;;;;;;5026246;28;20029;-65
2024/02/16 09:43:27;;;;;;;3.13;2.40;;;;;;;;;;5008615;28;20498;-62
2024/02/16 09:45:53;;;;;;;3.45;2.17;;;;;;;;;;5022902;28;20132;-64
2024/02/16 09:48:18;;;;;;;4.15;2.45;;;;;;;;;;5006735;28;20656;-62
2024/02/16 09:50:45;;;;;;;3.97;2.75;;;;;;;;;;5008061;28;20045;-62
2024/02/16 09:53:10;;;;;;;3.47;2.33;;;;;;;;;;5026487;28;20033;-62
2024/02/16 09:55:36;;;;;;;3.10;2.35;;;;;;;;;;5028555;28;20029;-62
2024/02/16 09:58:01;;;;;;;3.92;2.60;;;;;;;;;;5011847;28;20034;-64
2024/02/16 10:00:26;;;;;;;4.53;2.63;;;;;;;;;;5027777;28;20041;-62
2024/02/16 10:02:52;;;;;;;3.45;2.35;;;;;;;;;;5030592;28;20034;-61
2024/02/16 10:05:19;;;;;;;3.65;2.60;;;;;;;;;;5027975;28;20123;-62
2024/02/16 10:07:44;;;;;;;3.53;2.35;;;;;;;;;;5011700;28;20096;-63
2024/02/16 10:10:25;;;;;;;3.75;2.50;;;;;;;;;;5029436;28;20064;-62
2024/02/16 10:13:00;;;;;;;2.78;2.20;;;;;;;;;;5018272;28;20148;-64
2024/02/16 10:15:25;;;;;;;3.42;2.10;;;;;;;;;;5016210;28;20507;-62
2024/02/16 10:18:04;;;;;;;2.72;2.20;;;;;;;;;;5033354;28;20057;-61
2024/02/16 10:20:29;;;;;;;4.07;2.28;;;;;;;;;;5031868;28;20132;-62
2024/02/16 10:23:03;;;;;;;3.00;2.28;;;;;;;;;;5036915;28;20608;-63
2024/02/16 10:25:29;;;;;;;3.10;2.30;;;;;;;;;;5035593;28;20045;-64
2024/02/16 10:27:55;;;;;;;4.35;2.60;;;;;;;;;;5026817;28;20451;-63
2024/02/16 10:30:20;;;;;;;4.95;3.00;;;;;;;;;;5019702;28;20487;-64
2024/02/16 10:32:46;;;;;;;4.90;2.72;;;;;;;;;;5010401;28;20162;-63
2024/02/16 10:35:11;;;;;;;6.03;2.78;;;;;;;;;;5023469;28;20037;-62
2024/02/16 10:37:37;;;;;;;4.72;2.92;;;;;;;;;;5005607;28;20042;-62
2024/02/16 10:40:02;;;;;;;5.18;2.92;;;;;;;;;;5009819;28;20064;-63
2024/02/16 10:42:28;;;;;;;5.63;2.88;;;;;;;;;;5026718;28;20519;-64
2024/02/16 10:44:53;;;;;;;4.97;2.70;;;;;;;;;;5043049;28;20044;-64
2024/02/16 10:47:18;;;;;;;4.88;2.90;;;;;;;;;;5025597;28;20037;-61
2024/02/16 10:49:44;;;;;;;5.95;2.78;;;;;;;;;;5023361;28;20042;-62
2024/02/16 10:52:09;;;;;;;4.40;2.65;;;;;;;;;;5009470;28;20419;-63
2024/02/16 10:54:35;;;;;;;4.90;2.55;;;;;;;;;;5017558;28;20038;-62
2024/02/16 10:57:00;;;;;;;4.57;2.88;;;;;;;;;;5010563;28;20034;-62
2024/02/16 10:59:28;;;;;;;4.95;2.67;;;;;;;;;;5024555;28;20033;-61
2024/02/16 11:02:00;;;;;;;4.70;2.30;;;;;;;;;;5026722;28;20045;-63
2024/02/16 11:04:25;;;;;;;4.68;2.53;;;;;;;;;;5014292;28;20130;-64
2024/02/16 11:06:56;;;;;;;3.72;2.30;;;;;;;;;;4984950;28;20117;-63
2024/02/16 11:09:34;;;;;;;3.20;2.42;;;;;;;;;;5016159;28;20103;-64
2024/02/16 11:12:00;;;;;;;3.72;2.17;;;;;;;;;;5029266;28;20041;-62
2024/02/16 11:14:34;;;;;;;4.63;2.50;;;;;;;;;;5028128;28;20036;-64
2024/02/16 11:16:59;;;;;;;3.70;2.35;;;;;;;;;;5023665;28;20037;-64
2024/02/16 11:19:24;;;;;;;6.22;2.70;;;;;;;;;;5011040;28;20419;-62
2024/02/16 11:21:57;;;;;;;3.40;2.35;;;;;;;;;;5010774;28;20041;-62
2024/02/16 11:24:29;;;;;;;3.55;2.30;;;;;;;;;;5022533;28;20040;-62
2024/02/16 11:26:55;;;;;;;3.15;2.10;;;;;;;;;;5021073;28;20132;-63
2024/02/16 11:29:20;;;;;;;3.63;2.22;;;;;;;;;;5010531;28;20083;-62
2024/02/16 11:31:45;;;;;;;3.10;2.28;;;;;;;;;;5014266;28;20133;-62
2024/02/16 11:34:20;;;;;;;3.47;2.25;;;;;;;;;;5025420;28;20538;-63
2024/02/16 11:36:46;;;;;;;6.70;2.33;;;;;;;;;;5026333;28;20072;-62
2024/02/16 11:39:16;;;;;;;3.85;2.20;;;;;;;;;;5022557;28;20048;-63
2024/02/16 11:41:41;;;;;;;4.55;2.30;;;;;;;;;;5014180;28;20033;-63
2024/02/16 11:44:06;;;;;;;5.07;2.10;;;;;;;;;;5022622;28;20102;-62
2024/02/16 11:46:32;;;;;;;3.47;2.45;;;;;;;;;;5023973;28;20025;-63
2024/02/16 11:49:07;;;;;;;3.55;2.00;;;;;;;;;;5026298;28;20548;-66
2024/02/16 11:51:32;;;;;;;2.47;1.88;;;;;;;;;;5025083;28;20440;-64
2024/02/16 11:53:58;;;;;;;3.58;2.03;;;;;;;;;;5011113;28;20041;-62
2024/02/16 11:56:24;;;;;;;3.65;2.30;;;;;;;;;;5025636;28;20025;-62
2024/02/16 11:58:49;;;;;;;4.00;2.22;;;;;;;;;;5011006;28;20041;-64
2024/02/16 12:01:16;;;;;;;3.42;1.85;;;;;;;;;;5009467;28;20053;-64
2024/02/16 12:03:41;;;;;;;3.75;2.40;;;;;;;;;;5025373;28;20107;-67
2024/02/16 12:06:06;;;;;;;3.60;2.10;;;;;;;;;;5012568;28;20167;-67
2024/02/16 12:08:33;;;;;;;2.55;1.88;;;;;;;;;;5025179;28;20499;-63
2024/02/16 12:10:58;;;;;;;3.25;2.08;;;;;;;;;;5008813;28;20037;-63
2024/02/16 12:13:23;;;;;;;4.00;2.15;;;;;;;;;;5026628;28;20521;-62
2024/02/16 12:15:50;;;;;;;2.72;1.70;;;;;;;;;;5023441;28;20029;-61
2024/02/16 12:18:25;;;;;;;3.08;2.08;;;;;;;;;;5019160;28;20545;-63
2024/02/16 12:20:57;;;;;;;3.40;2.08;;;;;;;;;;5021066;28;20384;-64
2024/02/16 12:23:22;;;;;;;2.90;2.03;;;;;;;;;;4999123;28;20041;-65
2024/02/16 12:25:48;;;;;;;3.28;2.17;;;;;;;;;;5014418;28;20095;-63
2024/02/16 12:28:13;;;;;;;2.85;2.05;;;;;;;;;;5026648;28;20163;-65
2024/02/16 12:30:39;;;;;;;3.30;1.80;;;;;;;;;;5015915;28;20910;-66
2024/02/16 12:33:05;;;;;;;3.42;2.22;;;;;;;;;;5006661;28;20474;-64
2024/02/16 12:35:31;;;;;;;3.45;1.88;;;;;;;;;;5016526;28;20095;-67
2024/02/16 12:37:56;;;;;;;3.08;1.92;;;;;;;;;;5024906;28;20051;-64
2024/02/16 12:40:21;;;;;;;2.92;1.90;;;;;;;;;;5024351;28;20033;-66
2024/02/16 12:42:47;;;;;;;2.65;2.15;;;;;;;;;;5015769;28;20076;-66
2024/02/16 12:45:13;;;;;;;3.70;2.05;;;;;;;;;;5015541;28;20030;-63
2024/02/16 12:47:38;;;;;;;2.63;1.75;;;;;;;;;;5018726;28;20511;-67
2024/02/16 12:50:04;;;;;;;3.17;1.95;;;;;;;;;;5038085;28;20136;-66
2024/02/16 12:52:29;;;;;;;2.97;1.80;;;;;;;;;;5020435;28;20033;-63
2024/02/16 12:54:57;;;;;;;3.15;1.95;;;;;;;;;;5015550;28;20034;-64
2024/02/16 12:57:23;;;;;;;3.83;2.13;;;;;;;;;;5016298;28;20199;-64
2024/02/16 12:59:49;;;;;;;2.78;1.90;;;;;;;;;;5015872;28;20452;-66
2024/02/16 13:02:14;;;;;;;2.30;1.67;;;;;;;;;;5016324;28;20033;-65
2024/02/16 13:04:40;;;;;;;2.45;1.70;;;;;;;;;;5022987;28;20048;-65
2024/02/16 13:07:05;;;;;;;2.63;1.65;;;;;;;;;;5030046;28;20029;-64
2024/02/16 13:09:30;;;;;;;3.58;2.10;;;;;;;;;;5021985;28;20046;-65
2024/02/16 13:11:56;;;;;;;2.72;2.03;;;;;;;;;;5025175;28;20038;-67
2024/02/16 13:14:21;;;;;;;3.47;2.00;;;;;;;;;;5010166;28;20022;-65
2024/02/16 13:16:47;;;;;;;2.40;1.88;;;;;;;;;;5021615;28;20036;-64
2024/02/16 13:19:12;;;;;;;3.10;1.83;;;;;;;;;;5020427;28;20111;-64
2024/02/16 13:21:38;;;;;;;2.60;1.88;;;;;;;;;;5022247;28;20441;-69
2024/02/16 13:24:03;;;;;;;2.65;1.80;;;;;;;;;;5023271;28;20060;-63
2024/02/16 13:26:29;;;;;;;2.20;1.50;;;;;;;;;;5013344;28;20069;-64
2024/02/16 13:28:55;;;;;;;3.10;1.90;;;;;;;;;;5020912;28;20034;-65
2024/02/16 13:31:20;;;;;;;2.58;1.40;;;;;;;;;;5023834;28;20045;-64
2024/02/16 13:33:46;;;;;;;2.55;1.80;;;;;;;;;;5024683;28;20033;-65
2024/02/16 13:36:11;;;;;;;1.98;1.52;;;;;;;;;;5018716;28;20038;-65
2024/02/16 13:38:37;;;;;;;2.83;1.77;;;;;;;;;;5022202;28;20129;-63
2024/02/16 13:41:04;;;;;;;2.92;1.90;;;;;;;;;;5025112;28;21996;-64
2024/02/16 13:43:30;;;;;;;2.20;1.80;;;;;;;;;;5028438;28;20045;-65
2024/02/16 13:45:57;;;;;;;2.45;1.75;;;;;;;;;;5008443;28;20095;-64
2024/02/16 13:48:23;;;;;;;2.50;1.63;;;;;;;;;;5014391;28;20380;-64
2024/02/16 13:50:48;;;;;;;2.80;1.63;;;;;;;;;;5028833;28;20040;-64
2024/02/16 13:53:14;;;;;;;2.85;1.73;;;;;;;;;;5027831;28;20037;-63
2024/02/16 13:55:39;;;;;;;2.00;1.50;;;;;;;;;;5026177;28;20045;-63
2024/02/16 13:58:04;;;;;;;2.67;1.90;;;;;;;;;;5007059;28;20038;-63
2024/02/16 14:00:30;;;;;;;2.25;1.90;;;;;;;;;;5027336;28;20029;-65
2024/02/16 14:02:55;;;;;;;2.90;2.08;;;;;;;;;;5028094;28;20103;-66
2024/02/16 14:05:22;;;;;;;2.13;1.50;;;;;;;;;;5030742;28;20029;-65
2024/02/16 14:07:48;;;;;;;3.53;1.98;;;;;;;;;;5024937;28;20029;-67
2024/02/16 14:10:13;;;;;;;3.03;1.80;;;;;;;;;;5009749;28;20422;-66
2024/02/16 14:12:39;;;;;;;2.22;1.65;;;;;;;;;;5027093;28;20038;-63
2024/02/16 14:15:04;;;;;;;3.03;1.70;;;;;;;;;;5026691;28;20111;-64
2024/02/16 14:17:30;;;;;;;2.88;1.90;;;;;;;;;;5000695;28;20128;-63
2024/02/16 14:19:55;;;;;;;2.58;1.77;;;;;;;;;;5027940;28;20045;-64
2024/02/16 14:22:20;;;;;;;2.70;1.60;;;;;;;;;;5028177;28;20045;-64
2024/02/16 14:24:46;;;;;;;2.60;1.52;;;;;;;;;;5026153;28;20048;-64
2024/02/16 14:27:11;;;;;;;2.72;1.98;;;;;;;;;;5017712;28;20125;-63
2024/02/16 14:29:36;;;;;;;2.63;1.70;;;;;;;;;;5023217;28;20516;-63
2024/02/16 14:32:02;;;;;;;2.65;1.70;;;;;;;;;;5026577;28;20041;-64
2024/02/16 14:34:28;;;;;;;2.45;1.80;;;;;;;;;;5025522;28;20060;-64